sensor_id;sensor_type;location;lat;lon;timestamp;temperature;humidity
32366;DHT22;18837;46.832;16.838;2023-08-06T00:02:09;18.90;94.60
32366;DHT22;18837;46.832;16.838;2023-08-06T00:04:35;18.90;94.60
32366;DHT22;18837;46.832;16.838;2023-08-06T00:07:10;18.90;94.60
32366;DHT22;18837;46.832;16.838;2023-08-06T00:09:36;18.90;94.50
32366;DHT22;18837;46.832;16.838;2023-08-06T00:12:02;18.90;94.70
32366;DHT22;18837;46.832;16.838;2023-08-06T00:14:28;18.90;94.60
32366;DHT22;18837;46.832;16.838;2023-08-06T00:16:54;18.90;94.60
32366;DHT22;18837;46.832;16.838;2023-08-06T00:19:20;18.90;94.70
32366;DHT22;18837;46.832;16.838;2023-08-06T00:22:04;18.90;94.60
32366;DHT22;18837;46.832;16.838;2023-08-06T00:24:48;18.90;94.60
32366;DHT22;18837;46.832;16.838;2023-08-06T00:27:26;18.80;94.60
32366;DHT22;18837;46.832;16.838;2023-08-06T00:29:52;18.90;94.60
32366;DHT22;18837;46.832;16.838;2023-08-06T00:32:18;18.90;94.60
32366;DHT22;18837;46.832;16.838;2023-08-06T00:34:44;18.80;94.60
32366;DHT22;18837;46.832;16.838;2023-08-06T00:37:10;18.80;94.60
32366;DHT22;18837;46.832;16.838;2023-08-06T00:39:36;18.90;94.70
32366;DHT22;18837;46.832;16.838;2023-08-06T00:42:27;18.90;94.70
32366;DHT22;18837;46.832;16.838;2023-08-06T00:44:53;18.80;94.80
32366;DHT22;18837;46.832;16.838;2023-08-06T00:47:19;18.80;94.50
32366;DHT22;18837;46.832;16.838;2023-08-06T00:49:45;18.90;94.60
32366;DHT22;18837;46.832;16.838;2023-08-06T00:52:11;18.90;94.70
32366;DHT22;18837;46.832;16.838;2023-08-06T00:54:38;18.80;94.60
32366;DHT22;18837;46.832;16.838;2023-08-06T00:57:23;18.80;94.50
32366;DHT22;18837;46.832;16.838;2023-08-06T01:02:54;18.80;94.80
32366;DHT22;18837;46.832;16.838;2023-08-06T01:05:21;18.80;94.60
32366;DHT22;18837;46.832;16.838;2023-08-06T01:11:05;18.80;94.90
32366;DHT22;18837;46.832;16.838;2023-08-06T01:16:24;18.80;94.60
32366;DHT22;18837;46.832;16.838;2023-08-06T01:18:50;18.80;94.60
32366;DHT22;18837;46.832;16.838;2023-08-06T01:21:17;18.80;94.60
32366;DHT22;18837;46.832;16.838;2023-08-06T01:23:43;18.80;94.60
32366;DHT22;18837;46.832;16.838;2023-08-06T01:26:22;18.80;94.60
32366;DHT22;18837;46.832;16.838;2023-08-06T01:29:10;18.80;94.50
32366;DHT22;18837;46.832;16.838;2023-08-06T01:32:01;18.80;94.90
32366;DHT22;18837;46.832;16.838;2023-08-06T01:34:46;18.80;94.90
32366;DHT22;18837;46.832;16.838;2023-08-06T01:37:13;18.80;94.60
32366;DHT22;18837;46.832;16.838;2023-08-06T01:39:42;18.80;94.60
32366;DHT22;18837;46.832;16.838;2023-08-06T01:42:08;18.80;94.60
32366;DHT22;18837;46.832;16.838;2023-08-06T01:44:34;18.80;94.60
32366;DHT22;18837;46.832;16.838;2023-08-06T01:47:00;18.80;94.70
32366;DHT22;18837;46.832;16.838;2023-08-06T01:49:26;18.80;94.60
32366;DHT22;18837;46.832;16.838;2023-08-06T01:52:04;18.80;94.70
32366;DHT22;18837;46.832;16.838;2023-08-06T01:54:30;18.80;94.70
32366;DHT22;18837;46.832;16.838;2023-08-06T01:56:56;18.80;94.60
32366;DHT22;18837;46.832;16.838;2023-08-06T01:59:24;18.80;94.80
32366;DHT22;18837;46.832;16.838;2023-08-06T02:01:49;18.80;94.60
32366;DHT22;18837;46.832;16.838;2023-08-06T02:04:15;18.80;94.60
32366;DHT22;18837;46.832;16.838;2023-08-06T02:06:53;18.80;94.60
32366;DHT22;18837;46.832;16.838;2023-08-06T02:09:31;18.80;94.60
32366;DHT22;18837;46.832;16.838;2023-08-06T02:11:57;18.80;94.70
32366;DHT22;18837;46.832;16.838;2023-08-06T02:14:23;18.70;94.70
32366;DHT22;18837;46.832;16.838;2023-08-06T02:16:49;18.70;94.70
32366;DHT22;18837;46.832;16.838;2023-08-06T02:19:15;18.70;94.70
32366;DHT22;18837;46.832;16.838;2023-08-06T02:21:41;18.80;94.80
32366;DHT22;18837;46.832;16.838;2023-08-06T02:24:22;18.70;94.70
32366;DHT22;18837;46.832;16.838;2023-08-06T02:26:48;18.80;94.60
32366;DHT22;18837;46.832;16.838;2023-08-06T02:29:17;18.70;94.70
32366;DHT22;18837;46.832;16.838;2023-08-06T02:31:42;18.80;94.70
32366;DHT22;18837;46.832;16.838;2023-08-06T02:34:08;18.70;94.60
32366;DHT22;18837;46.832;16.838;2023-08-06T02:36:34;18.80;94.80
32366;DHT22;18837;46.832;16.838;2023-08-06T02:39:00;18.70;94.60
32366;DHT22;18837;46.832;16.838;2023-08-06T02:41:54;18.80;94.70
32366;DHT22;18837;46.832;16.838;2023-08-06T02:44:40;18.80;95.00
32366;DHT22;18837;46.832;16.838;2023-08-06T02:47:06;18.70;94.90
32366;DHT22;18837;46.832;16.838;2023-08-06T02:49:32;18.80;94.80
32366;DHT22;18837;46.832;16.838;2023-08-06T02:51:58;18.70;94.70
32366;DHT22;18837;46.832;16.838;2023-08-06T02:54:24;18.70;94.60
32366;DHT22;18837;46.832;16.838;2023-08-06T02:56:49;18.70;94.60
32366;DHT22;18837;46.832;16.838;2023-08-06T02:59:34;18.70;94.70
32366;DHT22;18837;46.832;16.838;2023-08-06T03:02:00;18.70;94.80
32366;DHT22;18837;46.832;16.838;2023-08-06T03:04:26;18.70;94.70
32366;DHT22;18837;46.832;16.838;2023-08-06T03:06:52;18.70;94.70
32366;DHT22;18837;46.832;16.838;2023-08-06T03:09:18;18.70;94.70
32366;DHT22;18837;46.832;16.838;2023-08-06T03:11:44;18.70;94.60
32366;DHT22;18837;46.832;16.838;2023-08-06T03:14:22;18.70;94.80
32366;DHT22;18837;46.832;16.838;2023-08-06T03:17:13;18.70;94.60
32366;DHT22;18837;46.832;16.838;2023-08-06T03:19:58;18.70;94.80
32366;DHT22;18837;46.832;16.838;2023-08-06T03:22:24;18.70;94.90
32366;DHT22;18837;46.832;16.838;2023-08-06T03:24:50;18.70;94.70
32366;DHT22;18837;46.832;16.838;2023-08-06T03:27:17;18.70;94.70
32366;DHT22;18837;46.832;16.838;2023-08-06T03:29:43;18.70;94.80
32366;DHT22;18837;46.832;16.838;2023-08-06T03:32:09;18.70;94.80
32366;DHT22;18837;46.832;16.838;2023-08-06T03:35:06;18.70;94.70
32366;DHT22;18837;46.832;16.838;2023-08-06T03:37:32;18.70;94.90
32366;DHT22;18837;46.832;16.838;2023-08-06T03:39:57;18.70;94.70
32366;DHT22;18837;46.832;16.838;2023-08-06T03:42:23;18.70;94.70
32366;DHT22;18837;46.832;16.838;2023-08-06T03:44:49;18.70;94.70
32366;DHT22;18837;46.832;16.838;2023-08-06T03:47:15;18.70;94.70
32366;DHT22;18837;46.832;16.838;2023-08-06T03:50:01;18.70;94.70
32366;DHT22;18837;46.832;16.838;2023-08-06T03:52:39;18.70;94.90
32366;DHT22;18837;46.832;16.838;2023-08-06T03:55:05;18.70;94.70
32366;DHT22;18837;46.832;16.838;2023-08-06T03:57:31;18.70;94.70
32366;DHT22;18837;46.832;16.838;2023-08-06T03:59:57;18.70;94.70
32366;DHT22;18837;46.832;16.838;2023-08-06T04:02:22;18.70;94.70
32366;DHT22;18837;46.832;16.838;2023-08-06T04:04:49;18.70;94.60
32366;DHT22;18837;46.832;16.838;2023-08-06T04:07:28;18.60;94.60
32366;DHT22;18837;46.832;16.838;2023-08-06T04:09:56;18.70;94.90
32366;DHT22;18837;46.832;16.838;2023-08-06T04:12:22;18.70;94.70
32366;DHT22;18837;46.832;16.838;2023-08-06T04:14:47;18.70;94.70
32366;DHT22;18837;46.832;16.838;2023-08-06T04:17:13;18.60;94.70
32366;DHT22;18837;46.832;16.838;2023-08-06T04:19:39;18.70;94.70
32366;DHT22;18837;46.832;16.838;2023-08-06T04:22:05;18.70;94.70
32366;DHT22;18837;46.832;16.838;2023-08-06T04:25:12;18.70;94.80
32366;DHT22;18837;46.832;16.838;2023-08-06T04:27:50;18.60;95.00
32366;DHT22;18837;46.832;16.838;2023-08-06T04:30:16;18.60;94.70
32366;DHT22;18837;46.832;16.838;2023-08-06T04:32:42;18.70;94.80
32366;DHT22;18837;46.832;16.838;2023-08-06T04:35:10;18.70;94.70
32366;DHT22;18837;46.832;16.838;2023-08-06T04:37:36;18.70;95.00
32366;DHT22;18837;46.832;16.838;2023-08-06T04:40:02;18.60;94.70
32366;DHT22;18837;46.832;16.838;2023-08-06T04:42:28;18.60;94.80
32366;DHT22;18837;46.832;16.838;2023-08-06T04:44:54;18.70;94.70
32366;DHT22;18837;46.832;16.838;2023-08-06T04:47:20;18.60;94.80
32366;DHT22;18837;46.832;16.838;2023-08-06T04:49:45;18.60;94.70
32366;DHT22;18837;46.832;16.838;2023-08-06T04:52:11;18.70;94.80
32366;DHT22;18837;46.832;16.838;2023-08-06T04:54:37;18.70;94.80
32366;DHT22;18837;46.832;16.838;2023-08-06T04:57:03;18.60;94.80
32366;DHT22;18837;46.832;16.838;2023-08-06T04:59:29;18.70;94.80
32366;DHT22;18837;46.832;16.838;2023-08-06T05:01:55;18.70;94.80
32366;DHT22;18837;46.832;16.838;2023-08-06T05:04:20;18.60;94.70
32366;DHT22;18837;46.832;16.838;2023-08-06T05:06:47;18.70;94.80
32366;DHT22;18837;46.832;16.838;2023-08-06T05:09:13;18.60;94.70
32366;DHT22;18837;46.832;16.838;2023-08-06T05:11:39;18.70;94.90
32366;DHT22;18837;46.832;16.838;2023-08-06T05:14:05;18.70;94.70
32366;DHT22;18837;46.832;16.838;2023-08-06T05:16:30;18.70;94.70
32366;DHT22;18837;46.832;16.838;2023-08-06T05:18:56;18.70;94.60
32366;DHT22;18837;46.832;16.838;2023-08-06T05:21:22;18.70;94.80
32366;DHT22;18837;46.832;16.838;2023-08-06T05:23:48;18.70;94.80
32366;DHT22;18837;46.832;16.838;2023-08-06T05:26:14;18.70;94.70
32366;DHT22;18837;46.832;16.838;2023-08-06T05:28:44;18.70;94.80
32366;DHT22;18837;46.832;16.838;2023-08-06T05:31:10;18.70;94.70
32366;DHT22;18837;46.832;16.838;2023-08-06T05:33:36;18.70;94.90
32366;DHT22;18837;46.832;16.838;2023-08-06T05:36:02;18.70;94.70
32366;DHT22;18837;46.832;16.838;2023-08-06T05:38:27;18.70;94.70
32366;DHT22;18837;46.832;16.838;2023-08-06T05:40:53;18.70;94.80
32366;DHT22;18837;46.832;16.838;2023-08-06T05:43:19;18.70;94.90
32366;DHT22;18837;46.832;16.838;2023-08-06T05:45:45;18.70;94.80
32366;DHT22;18837;46.832;16.838;2023-08-06T05:48:14;18.70;94.70
32366;DHT22;18837;46.832;16.838;2023-08-06T05:50:40;18.70;94.80
32366;DHT22;18837;46.832;16.838;2023-08-06T05:53:06;18.70;94.70
32366;DHT22;18837;46.832;16.838;2023-08-06T05:55:32;18.70;94.80
32366;DHT22;18837;46.832;16.838;2023-08-06T05:57:58;18.70;94.70
32366;DHT22;18837;46.832;16.838;2023-08-06T06:00:24;18.70;94.60
32366;DHT22;18837;46.832;16.838;2023-08-06T06:02:49;18.70;94.70
32366;DHT22;18837;46.832;16.838;2023-08-06T06:05:15;18.70;94.80
32366;DHT22;18837;46.832;16.838;2023-08-06T06:07:41;18.70;94.70
32366;DHT22;18837;46.832;16.838;2023-08-06T06:10:07;18.70;94.70
32366;DHT22;18837;46.832;16.838;2023-08-06T06:12:46;18.80;94.80
32366;DHT22;18837;46.832;16.838;2023-08-06T06:15:11;18.70;94.70
32366;DHT22;18837;46.832;16.838;2023-08-06T06:17:38;18.80;95.10
32366;DHT22;18837;46.832;16.838;2023-08-06T06:20:05;18.70;94.60
32366;DHT22;18837;46.832;16.838;2023-08-06T06:22:31;18.80;94.80
32366;DHT22;18837;46.832;16.838;2023-08-06T06:24:56;18.80;94.70
32366;DHT22;18837;46.832;16.838;2023-08-06T06:27:41;18.70;94.70
32366;DHT22;18837;46.832;16.838;2023-08-06T06:30:38;18.80;94.80
32366;DHT22;18837;46.832;16.838;2023-08-06T06:33:22;18.80;95.00
32366;DHT22;18837;46.832;16.838;2023-08-06T06:35:49;18.80;94.80
32366;DHT22;18837;46.832;16.838;2023-08-06T06:38:14;18.70;94.80
32366;DHT22;18837;46.832;16.838;2023-08-06T06:40:40;18.70;94.70
32366;DHT22;18837;46.832;16.838;2023-08-06T06:43:06;18.70;94.70
32366;DHT22;18837;46.832;16.838;2023-08-06T06:45:32;18.70;94.70
32366;DHT22;18837;46.832;16.838;2023-08-06T06:48:01;18.80;94.70
32366;DHT22;18837;46.832;16.838;2023-08-06T06:50:26;18.80;94.80
32366;DHT22;18837;46.832;16.838;2023-08-06T06:52:52;18.70;94.70
32366;DHT22;18837;46.832;16.838;2023-08-06T06:55:18;18.70;94.70
32366;DHT22;18837;46.832;16.838;2023-08-06T06:57:44;18.80;94.80
32366;DHT22;18837;46.832;16.838;2023-08-06T07:00:10;18.70;94.70
32366;DHT22;18837;46.832;16.838;2023-08-06T07:03:10;18.70;94.80
32366;DHT22;18837;46.832;16.838;2023-08-06T07:05:58;18.70;94.90
32366;DHT22;18837;46.832;16.838;2023-08-06T07:08:27;18.70;94.80
32366;DHT22;18837;46.832;16.838;2023-08-06T07:11:06;18.70;95.00
32366;DHT22;18837;46.832;16.838;2023-08-06T07:13:33;18.80;94.70
32366;DHT22;18837;46.832;16.838;2023-08-06T07:15:59;18.70;94.70
32366;DHT22;18837;46.832;16.838;2023-08-06T07:18:25;18.70;94.60
32366;DHT22;18837;46.832;16.838;2023-08-06T07:20:54;18.70;94.70
32366;DHT22;18837;46.832;16.838;2023-08-06T07:23:21;18.80;94.50
32366;DHT22;18837;46.832;16.838;2023-08-06T07:25:48;18.80;94.60
32366;DHT22;18837;46.832;16.838;2023-08-06T07:28:14;18.80;94.60
32366;DHT22;18837;46.832;16.838;2023-08-06T07:30:40;18.80;94.60
32366;DHT22;18837;46.832;16.838;2023-08-06T07:33:06;18.80;94.60
32366;DHT22;18837;46.832;16.838;2023-08-06T07:35:33;18.80;94.60
32366;DHT22;18837;46.832;16.838;2023-08-06T07:37:58;18.80;94.50
32366;DHT22;18837;46.832;16.838;2023-08-06T07:40:24;18.80;94.50
32366;DHT22;18837;46.832;16.838;2023-08-06T07:42:50;18.90;94.50
32366;DHT22;18837;46.832;16.838;2023-08-06T07:45:16;18.90;94.50
32366;DHT22;18837;46.832;16.838;2023-08-06T07:47:42;18.90;94.50
32366;DHT22;18837;46.832;16.838;2023-08-06T07:50:09;18.90;94.50
32366;DHT22;18837;46.832;16.838;2023-08-06T07:52:35;18.90;94.50
32366;DHT22;18837;46.832;16.838;2023-08-06T07:55:16;18.90;94.50
32366;DHT22;18837;46.832;16.838;2023-08-06T07:57:42;18.90;94.50
32366;DHT22;18837;46.832;16.838;2023-08-06T08:00:08;19.00;94.50
32366;DHT22;18837;46.832;16.838;2023-08-06T08:02:35;19.00;94.70
32366;DHT22;18837;46.832;16.838;2023-08-06T08:05:01;19.00;94.80
32366;DHT22;18837;46.832;16.838;2023-08-06T08:07:26;19.00;94.80
32366;DHT22;18837;46.832;16.838;2023-08-06T08:09:56;19.00;95.00
32366;DHT22;18837;46.832;16.838;2023-08-06T08:12:22;19.00;94.80
32366;DHT22;18837;46.832;16.838;2023-08-06T08:14:48;19.00;94.90
32366;DHT22;18837;46.832;16.838;2023-08-06T08:17:13;19.10;95.30
32366;DHT22;18837;46.832;16.838;2023-08-06T08:19:40;19.10;94.90
32366;DHT22;18837;46.832;16.838;2023-08-06T08:22:06;19.10;94.90
32366;DHT22;18837;46.832;16.838;2023-08-06T08:24:32;19.10;94.80
32366;DHT22;18837;46.832;16.838;2023-08-06T08:27:07;19.00;94.80
32366;DHT22;18837;46.832;16.838;2023-08-06T08:29:33;19.10;94.80
32366;DHT22;18837;46.832;16.838;2023-08-06T08:31:59;19.00;94.70
32366;DHT22;18837;46.832;16.838;2023-08-06T08:34:24;19.10;94.80
32366;DHT22;18837;46.832;16.838;2023-08-06T08:36:50;19.10;94.70
32366;DHT22;18837;46.832;16.838;2023-08-06T08:39:16;19.10;94.70
32366;DHT22;18837;46.832;16.838;2023-08-06T08:42:04;19.10;94.70
32366;DHT22;18837;46.832;16.838;2023-08-06T08:44:52;19.10;94.90
32366;DHT22;18837;46.832;16.838;2023-08-06T08:47:19;19.10;94.90
32366;DHT22;18837;46.832;16.838;2023-08-06T08:49:46;19.10;94.80
32366;DHT22;18837;46.832;16.838;2023-08-06T08:52:15;19.10;94.80
32366;DHT22;18837;46.832;16.838;2023-08-06T08:54:42;19.10;94.80
32366;DHT22;18837;46.832;16.838;2023-08-06T08:57:09;19.20;94.90
32366;DHT22;18837;46.832;16.838;2023-08-06T08:59:35;19.20;94.90
32366;DHT22;18837;46.832;16.838;2023-08-06T09:02:21;19.20;94.80
32366;DHT22;18837;46.832;16.838;2023-08-06T09:04:49;19.20;94.70
32366;DHT22;18837;46.832;16.838;2023-08-06T09:07:18;19.20;94.70
32366;DHT22;18837;46.832;16.838;2023-08-06T09:09:48;19.20;94.80
32366;DHT22;18837;46.832;16.838;2023-08-06T09:12:16;19.30;94.70
32366;DHT22;18837;46.832;16.838;2023-08-06T09:14:42;19.30;94.90
32366;DHT22;18837;46.832;16.838;2023-08-06T09:17:20;19.30;95.00
32366;DHT22;18837;46.832;16.838;2023-08-06T09:20:14;19.30;95.00
32366;DHT22;18837;46.832;16.838;2023-08-06T09:22:40;19.30;94.90
32366;DHT22;18837;46.832;16.838;2023-08-06T09:25:07;19.30;94.70
32366;DHT22;18837;46.832;16.838;2023-08-06T09:27:37;19.30;94.70
32366;DHT22;18837;46.832;16.838;2023-08-06T09:30:04;19.40;94.50
32366;DHT22;18837;46.832;16.838;2023-08-06T09:32:45;19.40;94.60
32366;DHT22;18837;46.832;16.838;2023-08-06T09:35:24;19.40;94.50
32366;DHT22;18837;46.832;16.838;2023-08-06T09:37:52;19.40;94.60
32366;DHT22;18837;46.832;16.838;2023-08-06T09:40:29;19.40;94.70
32366;DHT22;18837;46.832;16.838;2023-08-06T09:42:56;19.40;94.70
32366;DHT22;18837;46.832;16.838;2023-08-06T09:45:22;19.40;94.60
32366;DHT22;18837;46.832;16.838;2023-08-06T09:47:55;19.40;94.70
32366;DHT22;18837;46.832;16.838;2023-08-06T09:53:59;19.40;94.80
32366;DHT22;18837;46.832;16.838;2023-08-06T09:56:29;19.40;94.70
32366;DHT22;18837;46.832;16.838;2023-08-06T09:58:58;19.40;94.60
32366;DHT22;18837;46.832;16.838;2023-08-06T10:01:25;19.40;94.60
32366;DHT22;18837;46.832;16.838;2023-08-06T10:03:52;19.40;94.90
32366;DHT22;18837;46.832;16.838;2023-08-06T10:06:20;19.40;94.60
32366;DHT22;18837;46.832;16.838;2023-08-06T10:09:12;19.40;94.60
32366;DHT22;18837;46.832;16.838;2023-08-06T10:11:38;19.40;94.70
32366;DHT22;18837;46.832;16.838;2023-08-06T10:16:35;19.40;94.50
32366;DHT22;18837;46.832;16.838;2023-08-06T10:19:03;19.40;94.40
32366;DHT22;18837;46.832;16.838;2023-08-06T10:21:31;19.40;94.50
32366;DHT22;18837;46.832;16.838;2023-08-06T10:23:57;19.40;94.40
32366;DHT22;18837;46.832;16.838;2023-08-06T10:26:47;19.40;94.50
32366;DHT22;18837;46.832;16.838;2023-08-06T10:29:48;19.30;94.70
32366;DHT22;18837;46.832;16.838;2023-08-06T10:32:15;19.30;94.60
32366;DHT22;18837;46.832;16.838;2023-08-06T10:34:59;19.30;94.40
32366;DHT22;18837;46.832;16.838;2023-08-06T10:37:36;19.30;94.50
32366;DHT22;18837;46.832;16.838;2023-08-06T10:40:03;19.30;94.30
32366;DHT22;18837;46.832;16.838;2023-08-06T10:42:59;19.20;94.30
32366;DHT22;18837;46.832;16.838;2023-08-06T10:45:28;19.20;94.30
32366;DHT22;18837;46.832;16.838;2023-08-06T10:47:55;19.20;94.20
32366;DHT22;18837;46.832;16.838;2023-08-06T10:50:24;19.20;94.30
32366;DHT22;18837;46.832;16.838;2023-08-06T10:52:50;19.20;94.30
32366;DHT22;18837;46.832;16.838;2023-08-06T10:55:26;19.20;94.40
32366;DHT22;18837;46.832;16.838;2023-08-06T10:57:54;19.20;94.30
32366;DHT22;18837;46.832;16.838;2023-08-06T11:00:39;19.20;94.40
32366;DHT22;18837;46.832;16.838;2023-08-06T11:03:04;19.20;94.30
32366;DHT22;18837;46.832;16.838;2023-08-06T11:05:30;19.20;94.40
32366;DHT22;18837;46.832;16.838;2023-08-06T11:07:56;19.10;94.30
32366;DHT22;18837;46.832;16.838;2023-08-06T11:10:22;19.10;94.30
32366;DHT22;18837;46.832;16.838;2023-08-06T11:12:48;19.10;94.30
32366;DHT22;18837;46.832;16.838;2023-08-06T11:22:05;19.10;94.50
32366;DHT22;18837;46.832;16.838;2023-08-06T11:24:31;19.10;94.20
32366;DHT22;18837;46.832;16.838;2023-08-06T11:26:57;19.10;94.20
32366;DHT22;18837;46.832;16.838;2023-08-06T11:29:24;19.10;94.30
32366;DHT22;18837;46.832;16.838;2023-08-06T11:31:51;19.10;94.20
32366;DHT22;18837;46.832;16.838;2023-08-06T11:34:17;19.10;94.20
32366;DHT22;18837;46.832;16.838;2023-08-06T11:36:43;19.10;94.30
32366;DHT22;18837;46.832;16.838;2023-08-06T11:39:09;19.00;94.20
32366;DHT22;18837;46.832;16.838;2023-08-06T11:41:36;19.00;94.10
32366;DHT22;18837;46.832;16.838;2023-08-06T11:44:05;19.10;94.20
32366;DHT22;18837;46.832;16.838;2023-08-06T11:46:53;19.10;94.30
32366;DHT22;18837;46.832;16.838;2023-08-06T11:49:50;19.10;94.50
32366;DHT22;18837;46.832;16.838;2023-08-06T11:52:21;19.00;94.30
32366;DHT22;18837;46.832;16.838;2023-08-06T11:57:24;19.10;94.50
32366;DHT22;18837;46.832;16.838;2023-08-06T11:59:49;19.00;94.10
32366;DHT22;18837;46.832;16.838;2023-08-06T12:02:15;19.10;94.30
32366;DHT22;18837;46.832;16.838;2023-08-06T12:08:14;19.10;94.40
32366;DHT22;18837;46.832;16.838;2023-08-06T12:10:46;19.00;94.40
32366;DHT22;18837;46.832;16.838;2023-08-06T12:13:12;19.10;94.10
32366;DHT22;18837;46.832;16.838;2023-08-06T12:15:38;19.10;94.20
32366;DHT22;18837;46.832;16.838;2023-08-06T12:18:07;19.10;94.20
32366;DHT22;18837;46.832;16.838;2023-08-06T12:20:33;19.10;94.20
32366;DHT22;18837;46.832;16.838;2023-08-06T12:22:59;19.10;94.20
32366;DHT22;18837;46.832;16.838;2023-08-06T12:25:34;19.10;94.20
32366;DHT22;18837;46.832;16.838;2023-08-06T12:28:00;19.10;94.20
32366;DHT22;18837;46.832;16.838;2023-08-06T12:30:26;19.00;94.20
32366;DHT22;18837;46.832;16.838;2023-08-06T12:32:52;19.10;94.30
32366;DHT22;18837;46.832;16.838;2023-08-06T12:35:18;19.10;94.10
32366;DHT22;18837;46.832;16.838;2023-08-06T12:37:45;19.10;94.20
32366;DHT22;18837;46.832;16.838;2023-08-06T12:40:25;19.10;94.10
32366;DHT22;18837;46.832;16.838;2023-08-06T12:43:11;19.10;94.10
32366;DHT22;18837;46.832;16.838;2023-08-06T12:45:37;19.10;94.40
32366;DHT22;18837;46.832;16.838;2023-08-06T12:48:03;19.10;94.20
32366;DHT22;18837;46.832;16.838;2023-08-06T12:50:29;19.10;94.60
32366;DHT22;18837;46.832;16.838;2023-08-06T12:52:55;19.10;94.20
32366;DHT22;18837;46.832;16.838;2023-08-06T12:55:21;19.10;94.30
32366;DHT22;18837;46.832;16.838;2023-08-06T12:57:56;19.10;94.40
32366;DHT22;18837;46.832;16.838;2023-08-06T13:00:22;19.10;94.30
32366;DHT22;18837;46.832;16.838;2023-08-06T13:02:48;19.20;94.30
32366;DHT22;18837;46.832;16.838;2023-08-06T13:05:14;19.20;94.30
32366;DHT22;18837;46.832;16.838;2023-08-06T13:07:39;19.20;94.40
32366;DHT22;18837;46.832;16.838;2023-08-06T13:10:06;19.20;94.40
32366;DHT22;18837;46.832;16.838;2023-08-06T13:12:32;19.20;94.60
32366;DHT22;18837;46.832;16.838;2023-08-06T13:15:22;19.20;94.50
32366;DHT22;18837;46.832;16.838;2023-08-06T13:18:00;19.30;94.70
32366;DHT22;18837;46.832;16.838;2023-08-06T13:20:26;19.30;94.40
32366;DHT22;18837;46.832;16.838;2023-08-06T13:22:52;19.40;94.70
32366;DHT22;18837;46.832;16.838;2023-08-06T13:25:19;19.40;94.40
32366;DHT22;18837;46.832;16.838;2023-08-06T13:27:45;19.40;94.30
32366;DHT22;18837;46.832;16.838;2023-08-06T13:30:11;19.40;94.50
32366;DHT22;18837;46.832;16.838;2023-08-06T13:32:55;19.50;94.30
32366;DHT22;18837;46.832;16.838;2023-08-06T13:35:22;19.60;94.30
32366;DHT22;18837;46.832;16.838;2023-08-06T13:37:49;19.60;94.00
32366;DHT22;18837;46.832;16.838;2023-08-06T13:40:15;19.60;94.00
32366;DHT22;18837;46.832;16.838;2023-08-06T13:42:41;19.70;94.10
32366;DHT22;18837;46.832;16.838;2023-08-06T13:45:07;19.70;94.00
32366;DHT22;18837;46.832;16.838;2023-08-06T13:51:10;19.70;93.90
32366;DHT22;18837;46.832;16.838;2023-08-06T13:53:55;19.70;93.90
32366;DHT22;18837;46.832;16.838;2023-08-06T13:56:23;19.80;93.80
32366;DHT22;18837;46.832;16.838;2023-08-06T13:58:49;19.80;93.60
32366;DHT22;18837;46.832;16.838;2023-08-06T14:01:17;19.80;93.70
32366;DHT22;18837;46.832;16.838;2023-08-06T14:03:44;19.80;93.80
32366;DHT22;18837;46.832;16.838;2023-08-06T14:06:10;19.80;93.50
32366;DHT22;18837;46.832;16.838;2023-08-06T14:08:45;19.80;93.70
32366;DHT22;18837;46.832;16.838;2023-08-06T14:11:11;19.80;93.60
32366;DHT22;18837;46.832;16.838;2023-08-06T14:13:36;19.90;93.60
32366;DHT22;18837;46.832;16.838;2023-08-06T14:16:02;19.90;93.80
32366;DHT22;18837;46.832;16.838;2023-08-06T14:18:28;19.90;93.50
32366;DHT22;18837;46.832;16.838;2023-08-06T14:20:54;20.00;93.40
32366;DHT22;18837;46.832;16.838;2023-08-06T14:26:46;20.10;93.70
32366;DHT22;18837;46.832;16.838;2023-08-06T14:29:12;20.10;93.60
32366;DHT22;18837;46.832;16.838;2023-08-06T14:31:42;20.20;93.70
32366;DHT22;18837;46.832;16.838;2023-08-06T14:34:07;20.20;93.50
32366;DHT22;18837;46.832;16.838;2023-08-06T14:36:34;20.20;93.40
32366;DHT22;18837;46.832;16.838;2023-08-06T14:38:59;20.30;93.40
32366;DHT22;18837;46.832;16.838;2023-08-06T14:41:37;20.40;93.40
32366;DHT22;18837;46.832;16.838;2023-08-06T14:44:03;20.50;93.60
32366;DHT22;18837;46.832;16.838;2023-08-06T14:46:29;20.50;93.40
32366;DHT22;18837;46.832;16.838;2023-08-06T14:48:55;20.60;93.40
32366;DHT22;18837;46.832;16.838;2023-08-06T14:51:21;20.70;93.00
32366;DHT22;18837;46.832;16.838;2023-08-06T14:53:48;20.70;92.60
32366;DHT22;18837;46.832;16.838;2023-08-06T14:56:29;20.80;92.80
32366;DHT22;18837;46.832;16.838;2023-08-06T15:02:28;20.90;92.30
32366;DHT22;18837;46.832;16.838;2023-08-06T15:04:53;20.90;92.40
32366;DHT22;18837;46.832;16.838;2023-08-06T15:07:19;21.00;92.20
32366;DHT22;18837;46.832;16.838;2023-08-06T15:09:45;21.00;92.20
32366;DHT22;18837;46.832;16.838;2023-08-06T15:12:11;21.00;92.40
32366;DHT22;18837;46.832;16.838;2023-08-06T15:14:37;21.10;92.30
32366;DHT22;18837;46.832;16.838;2023-08-06T15:17:08;21.20;92.60
32366;DHT22;18837;46.832;16.838;2023-08-06T15:19:33;21.10;92.40
32366;DHT22;18837;46.832;16.838;2023-08-06T15:21:59;21.20;92.40
32366;DHT22;18837;46.832;16.838;2023-08-06T15:24:25;21.20;92.40
32366;DHT22;18837;46.832;16.838;2023-08-06T15:26:51;21.30;92.50
32366;DHT22;18837;46.832;16.838;2023-08-06T15:29:17;21.30;92.20
32366;DHT22;18837;46.832;16.838;2023-08-06T15:35:14;21.30;92.80
32366;DHT22;18837;46.832;16.838;2023-08-06T15:37:40;21.30;92.80
32366;DHT22;18837;46.832;16.838;2023-08-06T15:40:07;21.20;92.70
32366;DHT22;18837;46.832;16.838;2023-08-06T15:42:33;21.20;92.30
32366;DHT22;18837;46.832;16.838;2023-08-06T15:45:01;21.20;92.30
32366;DHT22;18837;46.832;16.838;2023-08-06T16:13:39;20.90;93.10
32366;DHT22;18837;46.832;16.838;2023-08-06T16:16:05;20.80;93.30
32366;DHT22;18837;46.832;16.838;2023-08-06T16:18:31;20.80;93.20
32366;DHT22;18837;46.832;16.838;2023-08-06T16:20:57;20.80;93.10
32366;DHT22;18837;46.832;16.838;2023-08-06T16:23:23;20.80;93.00
32366;DHT22;18837;46.832;16.838;2023-08-06T16:25:58;20.80;93.10
32366;DHT22;18837;46.832;16.838;2023-08-06T16:28:24;20.70;93.10
32366;DHT22;18837;46.832;16.838;2023-08-06T16:30:49;20.70;93.10
32366;DHT22;18837;46.832;16.838;2023-08-06T16:33:15;20.70;93.20
32366;DHT22;18837;46.832;16.838;2023-08-06T16:35:41;20.60;93.20
32366;DHT22;18837;46.832;16.838;2023-08-06T16:38:07;20.60;93.20